EVA802 VMMC-RCTP
Flight info
| Callsign | EVA802 |
|---|---|
| Flight time | N/A |
| Altitude | 37000 |
| Route | CONGA V631 ENVAR M750 EXTRA/N0451F290 M750 TONGA TONGA1A |
| Aircraft | A333/H-SDE3GHIJ2J3J5M1RVWXY/LB2D1 |
Departure
| Time | 2026-04-23 17:37 |
|---|---|
| Airport | Macau International Airport (VMMC) |
Arrival
| Time | N/A |
|---|---|
| Airport | Taiwan Taoyuan International Airport (RCTP) |
| Time | Latitude | Longitude | Altitude | Speed | Heading |
|---|---|---|---|---|---|
| 2026-04-23 17:16 | 22.15857 | 113.57623 | 32 ft | 0 kts | 285° |
| 2026-04-23 17:27 | 22.15854 | 113.57633 | 32 ft | 4 kts | 282° |
| 2026-04-23 17:27 | 22.15851 | 113.57662 | 32 ft | 4 kts | 264° |
| 2026-04-23 17:27 | 22.15858 | 113.57689 | 32 ft | 4 kts | 234° |
| 2026-04-23 17:27 | 22.15876 | 113.57705 | 32 ft | 2 kts | 194° |
| 2026-04-23 17:28 | 22.15881 | 113.57706 | 32 ft | 0 kts | 194° |
| 2026-04-23 17:30 | 22.15871 | 113.57703 | 32 ft | 5 kts | 194° |
| 2026-04-23 17:31 | 22.15805 | 113.57685 | 32 ft | 15 kts | 197° |
| 2026-04-23 17:31 | 22.15681 | 113.57622 | 32 ft | 24 kts | 211° |
| 2026-04-23 17:31 | 22.15591 | 113.57643 | 31 ft | 13 kts | 124° |
| 2026-04-23 17:31 | 22.15524 | 113.57749 | 32 ft | 22 kts | 123° |
| 2026-04-23 17:32 | 22.15425 | 113.57909 | 32 ft | 29 kts | 123° |
| 2026-04-23 17:32 | 22.15308 | 113.58094 | 32 ft | 29 kts | 124° |
| 2026-04-23 17:32 | 22.15197 | 113.58273 | 32 ft | 28 kts | 123° |
| 2026-04-23 17:32 | 22.15094 | 113.58444 | 32 ft | 27 kts | 123° |
| 2026-04-23 17:33 | 22.14993 | 113.58608 | 32 ft | 26 kts | 123° |
| 2026-04-23 17:33 | 22.14897 | 113.58767 | 32 ft | 25 kts | 123° |
| 2026-04-23 17:33 | 22.14799 | 113.58924 | 32 ft | 25 kts | 124° |
| 2026-04-23 17:33 | 22.14679 | 113.59051 | 32 ft | 24 kts | 157° |
| 2026-04-23 17:34 | 22.14524 | 113.59111 | 32 ft | 24 kts | 161° |
| 2026-04-23 17:34 | 22.14370 | 113.59168 | 32 ft | 24 kts | 161° |
| 2026-04-23 17:34 | 22.14052 | 113.59287 | 32 ft | 24 kts | 161° |
| 2026-04-23 17:35 | 22.13891 | 113.59346 | 32 ft | 24 kts | 162° |
| 2026-04-23 17:35 | 22.13572 | 113.59470 | 32 ft | 24 kts | 140° |
| 2026-04-23 17:35 | 22.13503 | 113.59621 | 32 ft | 22 kts | 67° |
| 2026-04-23 17:36 | 22.13605 | 113.59633 | 32 ft | 19 kts | 342° |
| 2026-04-23 17:36 | 22.13926 | 113.59517 | 35 ft | 78 kts | 341° |
| 2026-04-23 17:36 | 22.14616 | 113.59263 | 32 ft | 128 kts | 341° |
| 2026-04-23 17:36 | 22.15552 | 113.58915 | 361 ft | 140 kts | 342° |
| 2026-04-23 17:37 | 22.16460 | 113.58639 | 1129 ft | 138 kts | 359° |
| 2026-04-23 17:37 | 22.17285 | 113.59155 | 1584 ft | 150 kts | 56° |
| 2026-04-23 17:37 | 22.17710 | 113.61606 | 2068 ft | 193 kts | 71° |
| 2026-04-23 17:38 | 22.18508 | 113.62879 | 2245 ft | 217 kts | 46° |
| 2026-04-23 17:38 | 22.19802 | 113.63792 | 2591 ft | 228 kts | 16° |
| 2026-04-23 17:38 | 22.21353 | 113.64085 | 3343 ft | 224 kts | 3° |
| 2026-04-23 17:38 | 22.22913 | 113.64188 | 4081 ft | 226 kts | 1° |
| 2026-04-23 17:39 | 22.24486 | 113.64245 | 4730 ft | 232 kts | 359° |
| 2026-04-23 17:39 | 22.26129 | 113.64282 | 5444 ft | 237 kts | 359° |
| 2026-04-23 17:39 | 22.27782 | 113.64442 | 6157 ft | 243 kts | 12° |
| 2026-04-23 17:39 | 22.29320 | 113.65260 | 6829 ft | 251 kts | 33° |
| 2026-04-23 17:40 | 22.30721 | 113.66415 | 7543 ft | 255 kts | 37° |
| 2026-04-23 17:40 | 22.32090 | 113.67620 | 8239 ft | 259 kts | 37° |
| 2026-04-23 17:40 | 22.33450 | 113.68939 | 8918 ft | 265 kts | 47° |
| 2026-04-23 17:40 | 22.34415 | 113.70650 | 9581 ft | 270 kts | 70° |
| 2026-04-23 17:41 | 22.34915 | 113.72629 | 10251 ft | 275 kts | 78° |
| 2026-04-23 17:41 | 22.35681 | 113.76752 | 11565 ft | 284 kts | 79° |
| 2026-04-23 17:41 | 22.36071 | 113.78844 | 12197 ft | 289 kts | 79° |
| 2026-04-23 17:42 | 22.36894 | 113.83156 | 13506 ft | 295 kts | 79° |
| 2026-04-23 17:42 | 22.37302 | 113.85351 | 14149 ft | 298 kts | 82° |
| 2026-04-23 17:42 | 22.37405 | 113.87558 | 14751 ft | 299 kts | 98° |
| 2026-04-23 17:43 | 22.36893 | 113.89729 | 15339 ft | 298 kts | 119° |
| 2026-04-23 17:43 | 22.35859 | 113.91662 | 15915 ft | 297 kts | 128° |
| 2026-04-23 17:43 | 22.34679 | 113.93507 | 16528 ft | 299 kts | 130° |
| 2026-04-23 17:43 | 22.33473 | 113.95353 | 17103 ft | 302 kts | 130° |
| 2026-04-23 17:44 | 22.32270 | 113.97201 | 17649 ft | 305 kts | 129° |
| 2026-04-23 17:44 | 22.31047 | 113.99100 | 18181 ft | 309 kts | 128° |
| 2026-04-23 17:44 | 22.28579 | 114.02973 | 19268 ft | 316 kts | 129° |
| 2026-04-23 17:45 | 22.27323 | 114.04939 | 19797 ft | 318 kts | 129° |
| 2026-04-23 17:45 | 22.24792 | 114.08887 | 20761 ft | 325 kts | 129° |
| 2026-04-23 17:45 | 22.23499 | 114.10900 | 21238 ft | 328 kts | 130° |
| 2026-04-23 17:46 | 22.20852 | 114.14991 | 22139 ft | 335 kts | 130° |
| 2026-04-23 17:46 | 22.19528 | 114.17042 | 22599 ft | 338 kts | 131° |
| 2026-04-23 17:46 | 22.18182 | 114.19133 | 23037 ft | 341 kts | 131° |
| 2026-04-23 17:47 | 22.16816 | 114.21252 | 23454 ft | 344 kts | 131° |
| 2026-04-23 17:47 | 22.15442 | 114.23384 | 23854 ft | 348 kts | 131° |
| 2026-04-23 17:47 | 22.12672 | 114.27688 | 24691 ft | 353 kts | 131° |
| 2026-04-23 17:48 | 22.11261 | 114.29877 | 25088 ft | 356 kts | 131° |
| 2026-04-23 17:48 | 22.09842 | 114.32081 | 25486 ft | 359 kts | 131° |
| 2026-04-23 17:48 | 22.08413 | 114.34301 | 25865 ft | 361 kts | 131° |
| 2026-04-23 17:48 | 22.06980 | 114.36540 | 26228 ft | 365 kts | 130° |
| 2026-04-23 17:49 | 22.05541 | 114.38820 | 26602 ft | 367 kts | 130° |
| 2026-04-23 17:49 | 22.04124 | 114.41077 | 26946 ft | 369 kts | 130° |
| 2026-04-23 17:49 | 22.02673 | 114.43385 | 27306 ft | 372 kts | 130° |
| 2026-04-23 17:49 | 22.01213 | 114.45703 | 27658 ft | 374 kts | 130° |
| 2026-04-23 17:50 | 21.99740 | 114.48041 | 27984 ft | 376 kts | 130° |
| 2026-04-23 17:50 | 21.96796 | 114.52699 | 28623 ft | 380 kts | 130° |
| 2026-04-23 17:50 | 21.95228 | 114.55004 | 28938 ft | 381 kts | 132° |
| 2026-04-23 17:51 | 21.93621 | 114.57292 | 29253 ft | 382 kts | 133° |
| 2026-04-23 17:51 | 21.92001 | 114.59587 | 29527 ft | 385 kts | 132° |
| 2026-04-23 17:51 | 21.88734 | 114.64216 | 30090 ft | 390 kts | 132° |
| 2026-04-23 17:52 | 21.87110 | 114.66519 | 30368 ft | 392 kts | 132° |
| 2026-04-23 17:52 | 21.83791 | 114.71223 | 30914 ft | 396 kts | 132° |
| 2026-04-23 17:52 | 21.82121 | 114.73589 | 31173 ft | 398 kts | 132° |
| 2026-04-23 17:53 | 21.78745 | 114.78372 | 31657 ft | 402 kts | 131° |
| 2026-04-23 17:53 | 21.77157 | 114.80836 | 31910 ft | 407 kts | 125° |
| 2026-04-23 17:53 | 21.75840 | 114.83564 | 32160 ft | 413 kts | 116° |
| 2026-04-23 17:54 | 21.74913 | 114.86511 | 32388 ft | 418 kts | 106° |
| 2026-04-23 17:54 | 21.74423 | 114.89615 | 32609 ft | 423 kts | 96° |
| 2026-04-23 17:54 | 21.74319 | 114.95931 | 33098 ft | 426 kts | 91° |
| 2026-04-23 17:55 | 21.74345 | 115.02312 | 33514 ft | 429 kts | 91° |
| 2026-04-23 17:55 | 21.74351 | 115.05540 | 33749 ft | 430 kts | 91° |
| 2026-04-23 17:55 | 21.74354 | 115.08766 | 33965 ft | 431 kts | 91° |
| 2026-04-23 17:56 | 21.74353 | 115.11971 | 34153 ft | 433 kts | 91° |
| 2026-04-23 17:56 | 21.74347 | 115.18472 | 34521 ft | 436 kts | 91° |
| 2026-04-23 17:56 | 21.74344 | 115.20640 | 34645 ft | 437 kts | 91° |
| 2026-04-23 17:57 | 21.74338 | 115.23926 | 34814 ft | 438 kts | 91° |
| 2026-04-23 17:57 | 21.74330 | 115.28292 | 35054 ft | 440 kts | 91° |
| 2026-04-23 17:57 | 21.74318 | 115.33789 | 35342 ft | 442 kts | 92° |
| 2026-04-23 17:58 | 21.74308 | 115.38184 | 35565 ft | 444 kts | 91° |
| 2026-04-23 17:58 | 21.74292 | 115.43736 | 35824 ft | 446 kts | 92° |
| 2026-04-23 17:58 | 21.74283 | 115.47078 | 35989 ft | 447 kts | 91° |
| 2026-04-23 17:59 | 21.74273 | 115.50446 | 36106 ft | 449 kts | 92° |
| 2026-04-23 17:59 | 21.74263 | 115.53813 | 36254 ft | 451 kts | 92° |
| 2026-04-23 17:59 | 21.74252 | 115.57149 | 36424 ft | 451 kts | 92° |
| 2026-04-23 17:59 | 21.74240 | 115.60534 | 36558 ft | 453 kts | 92° |
| 2026-04-23 18:00 | 21.74228 | 115.63933 | 36715 ft | 454 kts | 92° |
| 2026-04-23 18:00 | 21.74216 | 115.67325 | 36883 ft | 453 kts | 92° |
| 2026-04-23 18:00 | 21.74202 | 115.70743 | 36936 ft | 457 kts | 92° |
| 2026-04-23 18:01 | 21.74172 | 115.77614 | 36933 ft | 466 kts | 92° |
| 2026-04-23 18:01 | 21.74139 | 115.84686 | 36932 ft | 476 kts | 92° |
| 2026-04-23 18:02 | 21.74101 | 115.91830 | 36933 ft | 485 kts | 92° |
| 2026-04-23 18:02 | 21.74060 | 115.99177 | 36932 ft | 494 kts | 92° |
| 2026-04-23 18:03 | 21.74017 | 116.06606 | 36932 ft | 503 kts | 92° |
| 2026-04-23 18:03 | 21.73968 | 116.14147 | 36934 ft | 503 kts | 92° |
| 2026-04-23 18:04 | 21.73916 | 116.21690 | 36934 ft | 503 kts | 92° |
| 2026-04-23 18:04 | 21.73860 | 116.29195 | 36935 ft | 506 kts | 91° |
| 2026-04-23 18:05 | 21.73801 | 116.36764 | 36934 ft | 508 kts | 92° |
| 2026-04-23 18:05 | 21.73738 | 116.44387 | 36934 ft | 508 kts | 92° |
| 2026-04-23 18:06 | 21.73671 | 116.51927 | 36935 ft | 507 kts | 92° |
| 2026-04-23 18:06 | 21.73601 | 116.59529 | 36934 ft | 507 kts | 92° |
| 2026-04-23 18:07 | 21.73528 | 116.67104 | 36934 ft | 506 kts | 92° |
| 2026-04-23 18:07 | 21.73467 | 116.74644 | 36934 ft | 506 kts | 90° |
| 2026-04-23 18:07 | 21.73786 | 116.78420 | 36934 ft | 506 kts | 79° |
| 2026-04-23 18:08 | 21.74703 | 116.82070 | 36936 ft | 505 kts | 71° |
| 2026-04-23 18:08 | 21.77147 | 116.89185 | 36934 ft | 506 kts | 68° |
| 2026-04-23 18:09 | 21.79769 | 116.96208 | 36934 ft | 506 kts | 68° |
| 2026-04-23 18:09 | 21.82362 | 117.03212 | 36935 ft | 506 kts | 68° |
| 2026-04-23 18:10 | 21.84929 | 117.10270 | 36934 ft | 505 kts | 69° |
| 2026-04-23 18:10 | 21.87474 | 117.17331 | 36935 ft | 505 kts | 69° |
| 2026-04-23 18:11 | 21.89997 | 117.24354 | 36933 ft | 505 kts | 69° |
| 2026-04-23 18:11 | 21.92535 | 117.31424 | 36934 ft | 505 kts | 69° |
| 2026-04-23 18:12 | 21.95066 | 117.38482 | 36933 ft | 505 kts | 69° |
| 2026-04-23 18:12 | 21.97587 | 117.45519 | 36935 ft | 505 kts | 69° |
| 2026-04-23 18:13 | 22.00597 | 117.52359 | 36935 ft | 504 kts | 60° |
| 2026-04-23 18:13 | 22.04168 | 117.58856 | 36935 ft | 507 kts | 58° |
| 2026-04-23 18:14 | 22.07850 | 117.65316 | 36934 ft | 508 kts | 58° |
| 2026-04-23 18:14 | 22.11572 | 117.71825 | 36934 ft | 508 kts | 58° |
| 2026-04-23 18:15 | 22.15244 | 117.78285 | 36928 ft | 507 kts | 58° |
| 2026-04-23 18:15 | 22.18931 | 117.84803 | 36929 ft | 507 kts | 58° |
| 2026-04-23 18:16 | 22.22603 | 117.91303 | 36912 ft | 507 kts | 58° |
| 2026-04-23 18:16 | 22.26258 | 117.97781 | 36929 ft | 507 kts | 58° |
| 2026-04-23 18:17 | 22.31847 | 118.07496 | 36927 ft | 507 kts | 57° |
| 2026-04-23 18:17 | 22.35604 | 118.13909 | 36929 ft | 507 kts | 57° |
| 2026-04-23 18:18 | 22.39388 | 118.20380 | 36924 ft | 508 kts | 57° |
| 2026-04-23 18:18 | 22.43091 | 118.26832 | 36924 ft | 508 kts | 58° |
| 2026-04-23 18:19 | 22.46786 | 118.33374 | 36914 ft | 509 kts | 58° |
| 2026-04-23 18:19 | 22.50459 | 118.39888 | 36923 ft | 510 kts | 58° |
| 2026-04-23 18:20 | 22.54169 | 118.46460 | 36916 ft | 510 kts | 58° |
| 2026-04-23 18:20 | 22.57857 | 118.52979 | 36929 ft | 511 kts | 58° |
| 2026-04-23 18:21 | 22.61588 | 118.59534 | 36908 ft | 511 kts | 58° |
| 2026-04-23 18:21 | 22.65306 | 118.66062 | 36913 ft | 511 kts | 57° |
| 2026-04-23 18:22 | 22.69037 | 118.72623 | 36903 ft | 511 kts | 57° |
| 2026-04-23 18:22 | 22.72775 | 118.79207 | 36903 ft | 512 kts | 58° |
| 2026-04-23 18:23 | 22.78347 | 118.89037 | 36914 ft | 512 kts | 57° |
| 2026-04-23 18:24 | 22.83944 | 118.98923 | 36900 ft | 512 kts | 57° |
| 2026-04-23 18:25 | 22.89517 | 119.08794 | 36906 ft | 513 kts | 58° |
| 2026-04-23 18:25 | 22.93244 | 119.15401 | 36914 ft | 513 kts | 58° |
| 2026-04-23 18:26 | 22.96973 | 119.22023 | 36911 ft | 514 kts | 58° |
| 2026-04-23 18:26 | 23.00674 | 119.28605 | 36911 ft | 513 kts | 58° |
| 2026-04-23 18:27 | 23.04402 | 119.35244 | 36924 ft | 513 kts | 58° |
| 2026-04-23 18:27 | 23.08107 | 119.41848 | 36919 ft | 514 kts | 58° |
| 2026-04-23 18:28 | 23.11833 | 119.48501 | 36915 ft | 514 kts | 58° |
| 2026-04-23 18:28 | 23.15579 | 119.55131 | 36917 ft | 514 kts | 54° |
| 2026-04-23 18:28 | 23.17763 | 119.58135 | 36924 ft | 511 kts | 43° |
| 2026-04-23 18:29 | 23.20440 | 119.60662 | 36912 ft | 506 kts | 31° |
| 2026-04-23 18:29 | 23.26416 | 119.64594 | 36910 ft | 505 kts | 26° |
| 2026-04-23 18:30 | 23.32524 | 119.68405 | 36918 ft | 506 kts | 26° |
| 2026-04-23 18:30 | 23.38597 | 119.72221 | 36914 ft | 507 kts | 26° |
| 2026-04-23 18:31 | 23.44716 | 119.76078 | 36922 ft | 507 kts | 26° |
| 2026-04-23 18:31 | 23.50759 | 119.80023 | 36919 ft | 509 kts | 28° |
| 2026-04-23 18:32 | 23.56764 | 119.84164 | 36911 ft | 510 kts | 28° |
| 2026-04-23 18:32 | 23.62737 | 119.88289 | 36910 ft | 510 kts | 28° |
| 2026-04-23 18:33 | 23.68745 | 119.92434 | 36911 ft | 510 kts | 28° |
| 2026-04-23 18:33 | 23.74639 | 119.96509 | 36928 ft | 487 kts | 28° |
| 2026-04-23 18:34 | 23.80294 | 120.00415 | 36910 ft | 486 kts | 28° |
| 2026-04-23 18:34 | 23.86084 | 120.04414 | 36909 ft | 496 kts | 28° |
| 2026-04-23 18:35 | 23.91938 | 120.08463 | 36928 ft | 505 kts | 28° |
| 2026-04-23 18:35 | 23.97933 | 120.12618 | 36919 ft | 514 kts | 28° |
| 2026-04-23 18:36 | 24.03985 | 120.16820 | 36929 ft | 515 kts | 28° |
| 2026-04-23 18:36 | 24.09996 | 120.20995 | 36937 ft | 507 kts | 28° |
| 2026-04-23 18:37 | 24.15947 | 120.25127 | 36936 ft | 506 kts | 28° |
| 2026-04-23 18:37 | 24.21874 | 120.29253 | 36935 ft | 508 kts | 28° |
| 2026-04-23 18:38 | 24.27841 | 120.33414 | 36935 ft | 507 kts | 28° |
| 2026-04-23 18:38 | 24.33791 | 120.37569 | 36935 ft | 509 kts | 28° |
| 2026-04-23 18:39 | 24.39772 | 120.41752 | 36930 ft | 509 kts | 28° |
| 2026-04-23 18:39 | 24.41540 | 120.42990 | 36772 ft | 508 kts | 28° |